Time;durP1;ratioP1;P1;durP2;ratioP2;P2;SDS_P1;SDS_P2;PMS_P1;PMS_P2;Temp;Humidity;BMP_temperature;BMP_pressure;BME280_temperature;BME280_humidity;BME280_pressure;Samples;Min_cycle;Max_cycle;Signal;HPM_P1;HPM_P2
2023/08/16 00:01:16;;;;;;;80.10;19.50;;;22.00;99.90;;;;;;5024333;28;20216;-86
2023/08/16 00:03:43;;;;;;;78.70;17.93;;;22.10;99.90;;;;;;5024269;28;20201;-86
2023/08/16 00:06:13;;;;;;;79.53;19.60;;;22.00;99.90;;;;;;5024173;28;20411;-86
2023/08/16 00:08:40;;;;;;;78.10;18.27;;;22.00;99.90;;;;;;5041838;28;20405;-86
2023/08/16 00:11:06;;;;;;;77.60;18.03;;;21.90;99.90;;;;;;5024112;28;20466;-86
2023/08/16 00:13:33;;;;;;;80.87;22.83;;;21.90;99.90;;;;;;5023774;28;20423;-86
2023/08/16 00:15:59;;;;;;;75.90;18.90;;;21.90;99.90;;;;;;5023771;28;21018;-86
2023/08/16 00:18:25;;;;;;;77.00;17.80;;;21.90;99.90;;;;;;5024464;28;20416;-86
2023/08/16 00:20:51;;;;;;;83.67;17.80;;;21.90;99.90;;;;;;5041221;28;20452;-86
2023/08/16 00:23:16;;;;;;;77.37;18.23;;;21.80;99.90;;;;;;5041679;28;20248;-86
2023/08/16 00:25:42;;;;;;;77.90;16.30;;;21.80;99.90;;;;;;5041630;28;20165;-86
2023/08/16 00:28:08;;;;;;;76.60;15.90;;;21.70;99.90;;;;;;5042059;28;20241;-86
2023/08/16 00:30:33;;;;;;;77.00;19.13;;;21.70;99.90;;;;;;5041961;28;20185;-86
2023/08/16 00:32:59;;;;;;;79.30;18.10;;;21.70;99.90;;;;;;5042243;28;20269;-85
2023/08/16 00:35:25;;;;;;;80.47;16.93;;;21.70;99.90;;;;;;5043717;28;20212;-86
2023/08/16 00:37:52;;;;;;;76.40;17.40;;;21.70;99.90;;;;;;5042141;28;20204;-86
2023/08/16 00:40:18;;;;;;;76.87;17.57;;;21.70;99.90;;;;;;5042186;28;20622;-86
2023/08/16 00:42:43;;;;;;;77.17;17.60;;;21.60;99.90;;;;;;5024738;28;20915;-86
2023/08/16 00:45:09;;;;;;;76.93;16.23;;;21.60;99.90;;;;;;5024368;28;20412;-86
2023/08/16 00:47:38;;;;;;;79.87;17.37;;;21.60;99.90;;;;;;5042124;28;20161;-86
2023/08/16 00:50:06;;;;;;;77.57;17.70;;;21.60;99.90;;;;;;5041260;28;20495;-86
2023/08/16 00:52:32;;;;;;;80.77;15.60;;;21.60;99.90;;;;;;5042827;28;20416;-86
2023/08/16 00:54:57;;;;;;;76.00;16.20;;;21.60;99.90;;;;;;5024622;28;20412;-86
2023/08/16 00:57:23;;;;;;;76.97;16.57;;;21.50;99.90;;;;;;5042216;28;20165;-86
2023/08/16 01:02:21;;;;;;;77.53;17.77;;;21.50;99.90;;;;;;5013100;28;20206;-80
2023/08/16 01:04:47;;;;;;;80.20;19.00;;;21.50;99.90;;;;;;5014819;28;20459;-80
2023/08/16 01:07:14;;;;;;;79.93;17.73;;;21.50;99.90;;;;;;5014468;28;20529;-80
2023/08/16 01:09:40;;;;;;;79.17;20.87;;;21.50;99.90;;;;;;5014710;28;20409;-78
2023/08/16 01:12:49;;;;;;;77.87;16.40;;;21.40;99.90;;;;;;5014348;28;20428;-78
2023/08/16 01:15:36;;;;;;;84.47;19.60;;;21.50;99.90;;;;;;5014269;28;20412;-78
2023/08/16 01:18:02;;;;;;;80.53;20.80;;;21.40;99.90;;;;;;5014314;28;20416;-78
2023/08/16 01:20:30;;;;;;;80.87;21.07;;;21.30;99.90;;;;;;5013781;28;20460;-78
2023/08/16 01:23:06;;;;;;;81.57;19.17;;;21.40;99.90;;;;;;5014130;28;20459;-78
2023/08/16 01:26:10;;;;;;;82.40;20.97;;;21.40;99.90;;;;;;5012556;28;20405;-78
2023/08/16 01:28:37;;;;;;;79.17;19.27;;;21.40;99.90;;;;;;5013864;28;20380;-78
2023/08/16 01:31:04;;;;;;;84.10;22.07;;;21.40;99.90;;;;;;5012571;28;20406;-78
2023/08/16 01:33:30;;;;;;;81.47;19.67;;;21.30;99.90;;;;;;5014452;28;20958;-78
2023/08/16 01:35:55;;;;;;;80.93;22.30;;;21.30;99.90;;;;;;5013710;28;20405;-78
2023/08/16 01:38:21;;;;;;;89.83;26.30;;;21.30;99.90;;;;;;5012523;28;20546;-78
2023/08/16 01:41:05;;;;;;;85.07;22.40;;;21.20;99.90;;;;;;5013916;28;20198;-78
2023/08/16 01:43:32;;;;;;;86.47;25.20;;;21.20;99.90;;;;;;5014077;28;20396;-78
2023/08/16 01:46:00;;;;;;;86.57;22.87;;;21.20;99.90;;;;;;5013892;28;20404;-78
2023/08/16 01:48:26;;;;;;;83.93;24.17;;;21.20;99.90;;;;;;5014012;28;20401;-78
2023/08/16 01:50:52;;;;;;;84.90;25.43;;;21.20;99.90;;;;;;5012538;28;20425;-77
2023/08/16 01:53:20;;;;;;;82.67;23.77;;;21.20;99.90;;;;;;5013880;28;20421;-78
2023/08/16 01:55:46;;;;;;;83.70;25.70;;;21.20;99.90;;;;;;5013510;28;20167;-78
2023/08/16 01:58:12;;;;;;;84.60;28.37;;;21.10;99.90;;;;;;5012185;28;20516;-77
2023/08/16 02:00:38;;;;;;;83.97;23.60;;;21.10;99.90;;;;;;5013178;28;20543;-78
2023/08/16 02:03:04;;;;;;;86.67;28.47;;;21.10;99.90;;;;;;5013450;28;20484;-78
2023/08/16 02:05:29;;;;;;;84.93;28.07;;;21.10;99.90;;;;;;5013882;28;20258;-78
2023/08/16 02:07:55;;;;;;;90.37;36.97;;;21.10;99.90;;;;;;5013434;28;20200;-78
2023/08/16 02:10:21;;;;;;;90.17;37.20;;;21.10;99.90;;;;;;5013253;28;20235;-78
2023/08/16 02:12:46;;;;;;;91.57;41.17;;;21.10;99.90;;;;;;5013347;28;20162;-78
2023/08/16 02:15:13;;;;;;;94.33;39.37;;;21.10;99.90;;;;;;5015750;28;20682;-78
2023/08/16 02:17:38;;;;;;;87.97;36.33;;;21.10;99.90;;;;;;5017320;28;20166;-77
2023/08/16 02:20:06;;;;;;;89.20;40.00;;;21.10;99.90;;;;;;5016898;28;20475;-78
2023/08/16 02:22:32;;;;;;;91.53;39.43;;;21.10;99.90;;;;;;5017308;28;20173;-78
2023/08/16 02:24:57;;;;;;;99.83;45.80;;;21.10;99.90;;;;;;5016675;28;20983;-77
2023/08/16 02:27:23;;;;;;;92.23;39.27;;;21.10;99.90;;;;;;5015716;28;20409;-78
2023/08/16 02:29:51;;;;;;;90.57;43.50;;;21.10;99.90;;;;;;5016857;28;20676;-77
2023/08/16 02:32:16;;;;;;;92.80;38.07;;;21.10;99.90;;;;;;5015577;28;20173;-78
2023/08/16 02:34:42;;;;;;;89.33;41.93;;;21.10;99.90;;;;;;5016596;28;20408;-78
2023/08/16 02:37:08;;;;;;;92.93;48.00;;;21.10;99.90;;;;;;5016905;28;20166;-78
2023/08/16 02:39:33;;;;;;;93.20;49.57;;;21.10;99.90;;;;;;5016739;28;20193;-78
2023/08/16 02:41:59;;;;;;;96.27;59.70;;;21.10;99.90;;;;;;5016417;28;20244;-78
2023/08/16 02:44:25;;;;;;;99.80;67.47;;;21.10;99.90;;;;;;5016662;28;20162;-78
2023/08/16 02:46:50;;;;;;;95.67;60.37;;;21.10;99.90;;;;;;5016487;28;20162;-77
2023/08/16 02:49:16;;;;;;;99.67;60.00;;;21.10;99.90;;;;;;5016426;28;20186;-77
2023/08/16 02:51:42;;;;;;;97.63;62.77;;;21.00;99.90;;;;;;5015519;28;20163;-77
2023/08/16 02:54:07;;;;;;;103.90;68.33;;;21.10;99.90;;;;;;5016303;28;20166;-77
2023/08/16 02:56:33;;;;;;;100.40;70.50;;;21.10;99.90;;;;;;5016434;28;20220;-77
2023/08/16 02:58:58;;;;;;;102.17;82.03;;;21.10;99.90;;;;;;5016211;28;20256;-77
2023/08/16 03:01:24;;;;;;;106.63;82.40;;;21.10;99.90;;;;;;5016041;28;20209;-77
2023/08/16 03:03:50;;;;;;;105.87;87.30;;;21.10;99.90;;;;;;5016634;28;20158;-77
2023/08/16 03:06:15;;;;;;;110.77;83.70;;;21.10;99.90;;;;;;5016614;28;20172;-77
2023/08/16 03:08:41;;;;;;;107.00;87.33;;;21.20;99.90;;;;;;5015878;28;20235;-77
2023/08/16 03:11:07;;;;;;;104.07;81.67;;;21.20;99.90;;;;;;5015849;28;20177;-78
2023/08/16 03:13:32;;;;;;;108.00;85.63;;;21.10;99.90;;;;;;5016536;28;20176;-78
2023/08/16 03:15:58;;;;;;;112.57;89.63;;;21.10;99.90;;;;;;5016271;28;20181;-78
2023/08/16 03:18:24;;;;;;;113.07;100.13;;;21.10;99.90;;;;;;5016084;28;20182;-77
2023/08/16 03:20:49;;;;;;;107.93;92.83;;;21.10;99.90;;;;;;5015519;28;20187;-77
2023/08/16 03:23:15;;;;;;;108.57;90.50;;;21.10;99.90;;;;;;5015584;28;20253;-77
2023/08/16 03:25:41;;;;;;;118.00;105.23;;;21.10;99.90;;;;;;5014912;28;20240;-77
2023/08/16 03:28:07;;;;;;;118.63;100.27;;;21.10;99.90;;;;;;5015342;28;20182;-77
2023/08/16 03:30:33;;;;;;;108.93;96.17;;;21.10;99.90;;;;;;5015265;28;20940;-77
2023/08/16 03:32:59;;;;;;;118.83;105.33;;;21.10;99.90;;;;;;5014093;28;20260;-77
2023/08/16 03:35:24;;;;;;;126.17;112.93;;;21.10;99.90;;;;;;5015285;28;20492;-77
2023/08/16 03:37:50;;;;;;;122.50;109.57;;;21.10;99.90;;;;;;5013968;28;20192;-77
2023/08/16 03:40:16;;;;;;;123.27;110.27;;;21.00;99.90;;;;;;5014943;28;20276;-77
2023/08/16 03:42:42;;;;;;;135.60;121.57;;;21.10;99.90;;;;;;5013857;28;20166;-78
2023/08/16 03:45:08;;;;;;;122.73;109.27;;;21.10;99.90;;;;;;5013842;28;20416;-78
2023/08/16 03:47:34;;;;;;;110.57;95.37;;;21.00;99.90;;;;;;5015102;28;20440;-78
2023/08/16 03:50:00;;;;;;;114.33;95.03;;;21.10;99.90;;;;;;5015505;28;20456;-77
2023/08/16 03:52:28;;;;;;;124.83;111.77;;;21.10;99.90;;;;;;5013666;28;20335;-78
2023/08/16 03:54:54;;;;;;;131.87;117.03;;;21.00;99.90;;;;;;5015025;28;20533;-77
2023/08/16 03:57:22;;;;;;;129.27;115.97;;;20.90;99.90;;;;;;5015208;28;20462;-77
2023/08/16 03:59:49;;;;;;;144.43;130.13;;;20.80;99.90;;;;;;5013925;28;20577;-78
2023/08/16 04:02:15;;;;;;;135.57;121.77;;;20.90;99.90;;;;;;5014857;28;20511;-77
2023/08/16 04:04:41;;;;;;;130.47;116.90;;;20.90;99.90;;;;;;5014885;28;20411;-77
2023/08/16 04:07:06;;;;;;;121.63;108.27;;;20.90;99.90;;;;;;5014829;28;20412;-77
2023/08/16 04:09:32;;;;;;;131.90;118.33;;;21.00;99.90;;;;;;5014614;28;20193;-78
2023/08/16 04:11:58;;;;;;;120.07;105.50;;;21.00;99.90;;;;;;5014814;28;20748;-78
2023/08/16 04:14:23;;;;;;;132.57;118.47;;;20.90;99.90;;;;;;5014666;28;20220;-77
2023/08/16 04:16:49;;;;;;;128.13;114.90;;;20.90;99.90;;;;;;5014676;28;20167;-78
2023/08/16 04:19:15;;;;;;;128.27;112.50;;;20.90;99.90;;;;;;5014722;28;20200;-77
2023/08/16 04:21:40;;;;;;;138.17;124.27;;;20.90;99.90;;;;;;5014622;28;20185;-77
2023/08/16 04:24:06;;;;;;;132.37;118.60;;;20.80;99.90;;;;;;5014713;28;20167;-78
2023/08/16 04:26:32;;;;;;;132.37;118.93;;;20.80;99.90;;;;;;5014539;28;20166;-77
2023/08/16 04:28:57;;;;;;;142.00;127.40;;;20.80;99.90;;;;;;5014370;28;20189;-77
2023/08/16 04:31:23;;;;;;;129.77;116.13;;;20.80;99.90;;;;;;5014822;28;20575;-77
2023/08/16 04:33:49;;;;;;;130.23;116.73;;;20.90;99.90;;;;;;5014586;28;20171;-77
2023/08/16 04:36:15;;;;;;;133.83;119.83;;;20.80;99.90;;;;;;5014623;28;20189;-78
2023/08/16 04:38:41;;;;;;;140.23;125.40;;;20.70;99.90;;;;;;5013744;28;20488;-78
2023/08/16 04:41:07;;;;;;;127.63;113.53;;;20.70;99.90;;;;;;5014312;28;20883;-77
2023/08/16 04:43:32;;;;;;;121.03;107.73;;;20.80;99.90;;;;;;5014540;28;20168;-78
2023/08/16 04:45:58;;;;;;;131.70;110.87;;;20.80;99.90;;;;;;5014734;28;20173;-77
2023/08/16 04:48:24;;;;;;;122.03;104.53;;;20.80;99.90;;;;;;5013131;28;20677;-78
2023/08/16 04:50:50;;;;;;;114.03;96.97;;;20.80;99.90;;;;;;5014109;28;20187;-78
2023/08/16 04:53:16;;;;;;;124.73;108.43;;;20.80;99.90;;;;;;5013065;28;20666;-77
2023/08/16 04:55:41;;;;;;;118.80;106.03;;;20.70;99.90;;;;;;5014361;28;20409;-78
2023/08/16 04:58:07;;;;;;;133.20;119.40;;;20.70;99.90;;;;;;5014655;28;20421;-77
2023/08/16 05:00:33;;;;;;;127.90;114.20;;;20.70;99.90;;;;;;5014005;28;20205;-78
2023/08/16 05:02:59;;;;;;;136.73;122.73;;;20.70;99.90;;;;;;5014415;28;20162;-78
2023/08/16 05:05:26;;;;;;;128.60;114.90;;;20.70;99.90;;;;;;5014325;28;20408;-78
2023/08/16 05:07:52;;;;;;;133.53;119.80;;;20.70;99.90;;;;;;5012712;28;20166;-78
2023/08/16 05:10:17;;;;;;;148.33;133.17;;;20.70;99.90;;;;;;5013750;28;20953;-78
2023/08/16 05:12:43;;;;;;;147.20;132.60;;;20.70;99.90;;;;;;5012977;28;20233;-78
2023/08/16 05:15:09;;;;;;;145.57;130.53;;;20.70;99.90;;;;;;5012655;28;20166;-78
2023/08/16 05:17:35;;;;;;;148.63;134.17;;;20.70;99.90;;;;;;5013819;28;20172;-78
2023/08/16 05:20:02;;;;;;;144.90;130.43;;;20.70;99.90;;;;;;5012970;28;20437;-78
2023/08/16 05:22:27;;;;;;;146.20;131.40;;;20.70;99.90;;;;;;5013612;28;20420;-78
2023/08/16 05:24:53;;;;;;;146.83;132.43;;;20.70;99.90;;;;;;5013687;28;20397;-78
2023/08/16 05:27:19;;;;;;;155.00;140.33;;;20.70;99.90;;;;;;5013574;28;20165;-77
2023/08/16 05:29:44;;;;;;;142.13;128.03;;;20.80;99.90;;;;;;5013654;28;20208;-77
2023/08/16 05:32:10;;;;;;;153.47;138.40;;;20.70;99.90;;;;;;5013431;28;20166;-77
2023/08/16 05:34:36;;;;;;;139.57;125.50;;;20.70;99.90;;;;;;5013354;28;20583;-77
2023/08/16 05:37:01;;;;;;;137.47;123.27;;;20.80;99.90;;;;;;5013344;28;20197;-77
2023/08/16 05:39:27;;;;;;;137.60;123.20;;;20.70;99.90;;;;;;5013250;28;20235;-77
2023/08/16 05:41:53;;;;;;;148.90;134.20;;;20.70;99.90;;;;;;5013250;28;20196;-77
2023/08/16 05:44:18;;;;;;;147.23;132.57;;;20.70;99.90;;;;;;5013285;28;20634;-77
2023/08/16 05:46:44;;;;;;;143.63;128.97;;;20.80;99.90;;;;;;5013238;28;20704;-77
2023/08/16 05:49:10;;;;;;;143.57;129.40;;;20.80;99.90;;;;;;5014239;28;20188;-77
2023/08/16 05:51:35;;;;;;;135.50;121.23;;;20.80;99.90;;;;;;5017074;28;20180;-77
2023/08/16 05:54:02;;;;;;;145.03;130.83;;;20.70;99.90;;;;;;5017409;28;20661;-77
2023/08/16 05:56:28;;;;;;;144.07;129.37;;;20.80;99.90;;;;;;5015684;28;20166;-77
2023/08/16 05:58:54;;;;;;;139.63;125.37;;;20.80;99.90;;;;;;5016958;28;20452;-77
2023/08/16 06:01:19;;;;;;;139.50;124.73;;;20.70;99.90;;;;;;5016653;28;20254;-77
2023/08/16 06:03:45;;;;;;;151.87;136.23;;;20.70;99.90;;;;;;5016997;28;20405;-77
2023/08/16 06:06:11;;;;;;;143.47;128.23;;;20.70;99.90;;;;;;5016832;28;20531;-77
2023/08/16 06:08:36;;;;;;;149.17;133.97;;;20.80;99.90;;;;;;5017057;28;20166;-77
2023/08/16 06:11:03;;;;;;;145.97;130.63;;;20.80;99.90;;;;;;5017014;28;20167;-77
2023/08/16 06:13:29;;;;;;;144.60;128.90;;;20.80;99.90;;;;;;5015779;28;20648;-78
2023/08/16 06:15:54;;;;;;;130.50;116.63;;;20.90;99.90;;;;;;5017076;28;20452;-77
2023/08/16 06:18:20;;;;;;;137.30;123.00;;;21.00;99.90;;;;;;5016992;28;20200;-77
2023/08/16 06:20:46;;;;;;;141.23;127.03;;;21.00;99.90;;;;;;5015270;28;20198;-77
2023/08/16 06:23:11;;;;;;;132.67;118.47;;;21.00;99.90;;;;;;5016823;28;20162;-77
2023/08/16 06:25:37;;;;;;;146.03;130.73;;;21.00;99.90;;;;;;5016890;28;20569;-77
2023/08/16 06:28:03;;;;;;;144.33;129.53;;;21.00;99.90;;;;;;5016831;28;20165;-77
2023/08/16 06:30:29;;;;;;;137.67;123.47;;;20.90;99.90;;;;;;5016482;28;20561;-77
2023/08/16 06:32:55;;;;;;;138.50;123.97;;;20.90;99.90;;;;;;5016307;28;20404;-77
2023/08/16 06:35:24;;;;;;;146.37;132.10;;;20.90;99.90;;;;;;5016208;28;20162;-77
2023/08/16 06:37:50;;;;;;;145.00;130.57;;;21.00;99.90;;;;;;5015129;28;20246;-77
2023/08/16 06:40:16;;;;;;;137.70;123.20;;;21.00;99.90;;;;;;5016288;28;20442;-77
2023/08/16 06:42:42;;;;;;;140.03;125.73;;;21.10;99.90;;;;;;5016227;28;20413;-77
2023/08/16 06:45:08;;;;;;;134.60;114.57;;;21.10;99.90;;;;;;5015079;28;20400;-77
2023/08/16 06:47:34;;;;;;;146.10;131.13;;;20.90;99.90;;;;;;5016374;28;20179;-77
2023/08/16 06:50:00;;;;;;;139.27;124.90;;;20.90;99.90;;;;;;5016174;28;20783;-77
2023/08/16 06:52:25;;;;;;;126.80;112.90;;;21.00;99.90;;;;;;5016260;28;20162;-77
2023/08/16 06:54:51;;;;;;;144.27;129.00;;;21.10;99.90;;;;;;5014763;28;20630;-77
2023/08/16 06:57:16;;;;;;;146.83;131.77;;;21.20;99.90;;;;;;5016085;28;20253;-77
2023/08/16 06:59:43;;;;;;;148.20;133.13;;;21.20;99.90;;;;;;5014779;28;20186;-77
2023/08/16 07:02:11;;;;;;;139.63;124.40;;;21.30;99.90;;;;;;5098389;23;20245;-85
2023/08/16 07:04:38;;;;;;;142.07;127.37;;;21.40;99.90;;;;;;5026570;28;20417;-85
2023/08/16 07:07:05;;;;;;;148.33;130.33;;;21.40;99.90;;;;;;5027444;28;20473;-85
2023/08/16 07:09:30;;;;;;;138.77;123.30;;;21.50;99.90;;;;;;5037194;28;20495;-85
2023/08/16 07:11:56;;;;;;;142.90;128.47;;;21.60;99.90;;;;;;5029871;28;20946;-85
2023/08/16 07:14:22;;;;;;;141.90;126.90;;;21.70;99.90;;;;;;5029525;28;20236;-86
2023/08/16 07:16:47;;;;;;;135.50;120.93;;;21.70;99.90;;;;;;5029715;28;20180;-85
2023/08/16 07:19:13;;;;;;;126.53;112.00;;;21.80;99.90;;;;;;5031070;28;20189;-86
2023/08/16 07:21:39;;;;;;;122.03;103.87;;;21.70;99.90;;;;;;5046786;28;20680;-85
2023/08/16 07:24:05;;;;;;;119.37;105.80;;;21.80;99.90;;;;;;5046281;28;20158;-86
2023/08/16 07:26:30;;;;;;;122.17;108.77;;;21.70;99.90;;;;;;5048918;28;20169;-86
2023/08/16 07:28:56;;;;;;;122.37;105.27;;;21.80;99.90;;;;;;5048059;28;21010;-85
2023/08/16 07:31:22;;;;;;;137.90;123.43;;;21.60;99.90;;;;;;5048046;28;20214;-85
2023/08/16 07:33:48;;;;;;;165.17;149.20;;;21.50;99.90;;;;;;5048814;28;20253;-86
2023/08/16 07:36:14;;;;;;;155.90;139.80;;;21.40;99.90;;;;;;5049209;28;20458;-85
2023/08/16 07:38:39;;;;;;;159.37;143.07;;;21.40;99.90;;;;;;5049649;28;20169;-86
2023/08/16 07:41:05;;;;;;;151.53;135.20;;;21.50;99.90;;;;;;5031101;28;20196;-86
2023/08/16 07:43:31;;;;;;;148.47;132.47;;;21.50;99.90;;;;;;5031573;28;20169;-85
2023/08/16 07:45:56;;;;;;;140.30;122.30;;;21.50;99.90;;;;;;5033600;28;20173;-85
2023/08/16 07:48:22;;;;;;;142.17;126.57;;;21.50;99.90;;;;;;5049844;28;20175;-86
2023/08/16 07:50:50;;;;;;;147.00;131.53;;;21.50;99.90;;;;;;5049384;28;20189;-86
2023/08/16 07:53:16;;;;;;;142.83;127.33;;;21.50;99.90;;;;;;5047051;28;20192;-85
2023/08/16 07:55:41;;;;;;;146.20;130.80;;;21.50;99.90;;;;;;5048430;28;20439;-86
2023/08/16 07:58:07;;;;;;;148.80;133.47;;;21.60;99.90;;;;;;5048548;28;20415;-85
2023/08/16 08:00:33;;;;;;;156.90;141.30;;;21.60;99.90;;;;;;5028629;28;20209;-85
2023/08/16 08:02:59;;;;;;;141.13;126.53;;;21.70;99.90;;;;;;5028836;28;20162;-85
2023/08/16 08:05:25;;;;;;;142.70;128.00;;;21.80;99.90;;;;;;5048279;28;20184;-85
2023/08/16 08:07:52;;;;;;;157.83;141.93;;;21.90;99.90;;;;;;5048044;28;20475;-85
2023/08/16 08:10:18;;;;;;;148.40;132.53;;;22.00;99.90;;;;;;5046036;28;20184;-85
2023/08/16 08:12:45;;;;;;;144.23;129.10;;;22.00;99.90;;;;;;5027878;28;20899;-86
2023/08/16 08:15:11;;;;;;;144.97;130.10;;;22.10;99.90;;;;;;5045860;28;20196;-85
2023/08/16 08:17:37;;;;;;;144.27;129.07;;;22.20;99.90;;;;;;5047144;28;20442;-85
2023/08/16 08:20:04;;;;;;;140.13;125.33;;;22.20;99.90;;;;;;5046173;28;20661;-85
2023/08/16 08:22:30;;;;;;;135.73;118.20;;;22.20;99.90;;;;;;5045475;28;20242;-85
2023/08/16 08:24:55;;;;;;;145.37;130.50;;;22.00;99.90;;;;;;5028047;28;20404;-85
2023/08/16 08:27:21;;;;;;;146.17;130.50;;;22.00;99.90;;;;;;5043324;28;20169;-85
2023/08/16 08:29:47;;;;;;;147.93;132.73;;;22.10;99.90;;;;;;5043430;28;20193;-85
2023/08/16 08:32:12;;;;;;;150.53;135.43;;;22.10;99.90;;;;;;5047136;28;20177;-85
2023/08/16 08:34:39;;;;;;;144.00;128.73;;;22.20;99.90;;;;;;5028163;28;20173;-85
2023/08/16 08:37:04;;;;;;;136.07;121.50;;;22.30;99.90;;;;;;5044397;28;20193;-85
2023/08/16 08:39:32;;;;;;;122.37;108.17;;;22.40;99.90;;;;;;5043409;28;20428;-84
2023/08/16 08:41:58;;;;;;;120.23;104.97;;;22.30;99.90;;;;;;5045879;28;20189;-85
2023/08/16 08:44:24;;;;;;;119.97;104.57;;;22.30;99.90;;;;;;5046441;28;20399;-85
2023/08/16 08:46:51;;;;;;;130.30;116.33;;;22.40;99.90;;;;;;5047070;28;20400;-85
2023/08/16 08:49:20;;;;;;;127.57;114.37;;;22.40;99.90;;;;;;5026323;28;20442;-84
2023/08/16 08:51:46;;;;;;;121.33;108.13;;;22.40;99.90;;;;;;5045241;28;20403;-85
2023/08/16 08:54:12;;;;;;;112.50;96.20;;;22.40;99.90;;;;;;5028713;28;20416;-85
2023/08/16 08:56:38;;;;;;;114.83;100.73;;;22.50;99.90;;;;;;5047059;28;20400;-85
2023/08/16 08:59:06;;;;;;;115.43;95.27;;;22.50;99.90;;;;;;5047018;28;20201;-85
2023/08/16 09:01:33;;;;;;;102.60;77.90;;;22.70;99.90;;;;;;5046875;28;20452;-85
2023/08/16 09:04:02;;;;;;;98.50;59.33;;;22.70;99.90;;;;;;5046131;28;20396;-85
2023/08/16 09:06:28;;;;;;;101.27;64.27;;;22.80;99.90;;;;;;5027715;28;20408;-85
2023/08/16 09:09:17;;;;;;;97.43;61.50;;;22.80;99.90;;;;;;5028241;28;20462;-86
2023/08/16 09:11:43;;;;;;;95.90;54.37;;;22.90;99.90;;;;;;5045013;28;20434;-85
2023/08/16 09:14:18;;;;;;;98.40;51.20;;;23.10;99.90;;;;;;5043386;28;20552;-85
2023/08/16 09:16:44;;;;;;;89.63;35.83;;;23.10;99.90;;;;;;5045424;28;20391;-85
2023/08/16 09:19:17;;;;;;;89.40;32.03;;;23.20;99.90;;;;;;5046409;28;20420;-85
2023/08/16 09:21:52;;;;;;;105.30;51.23;;;23.20;99.90;;;;;;5046341;28;20613;-85
2023/08/16 09:24:23;;;;;;;91.80;35.33;;;23.20;99.90;;;;;;5043675;28;20387;-85
2023/08/16 09:26:52;;;;;;;89.83;30.87;;;23.20;99.90;;;;;;5026849;28;20892;-85
2023/08/16 09:29:19;;;;;;;99.00;40.90;;;23.20;99.90;;;;;;5043458;28;20420;-85
2023/08/16 09:31:46;;;;;;;109.77;56.37;;;23.00;99.90;;;;;;5045147;28;20420;-85
2023/08/16 09:34:13;;;;;;;112.30;79.17;;;22.80;99.90;;;;;;5027320;28;20404;-86
2023/08/16 09:36:42;;;;;;;114.73;96.30;;;22.60;99.90;;;;;;5027150;28;20408;-86
2023/08/16 09:39:09;;;;;;;112.80;96.17;;;22.50;99.90;;;;;;5045653;28;20428;-85
2023/08/16 09:41:36;;;;;;;120.97;107.67;;;22.50;99.90;;;;;;5009867;28;20789;-86
2023/08/16 09:44:10;;;;;;;114.23;95.27;;;22.70;99.90;;;;;;5044693;28;20418;-85
2023/08/16 09:46:41;;;;;;;117.87;97.27;;;22.80;99.90;;;;;;5029164;28;20412;-85
2023/08/16 09:49:08;;;;;;;106.23;68.90;;;23.00;99.90;;;;;;5047051;28;20443;-85
2023/08/16 09:51:39;;;;;;;100.07;54.77;;;23.30;99.90;;;;;;5046359;28;20400;-85
2023/08/16 09:54:12;;;;;;;102.50;52.60;;;23.50;99.90;;;;;;5026876;28;20408;-85
2023/08/16 09:56:39;;;;;;;90.63;25.47;;;23.80;99.90;;;;;;5046736;28;20472;-85
2023/08/16 09:59:07;;;;;;;88.70;33.10;;;24.10;99.90;;;;;;5043439;28;20459;-85
2023/08/16 10:01:33;;;;;;;89.97;33.50;;;24.30;99.90;;;;;;5043829;28;20467;-85
2023/08/16 10:04:03;;;;;;;90.73;35.87;;;24.40;99.90;;;;;;5046594;28;20392;-85
2023/08/16 10:06:32;;;;;;;87.67;33.23;;;24.50;99.90;;;;;;5045992;28;20447;-85
2023/08/16 10:08:59;;;;;;;86.07;27.50;;;24.70;99.90;;;;;;5046403;28;20421;-85
2023/08/16 10:11:24;;;;;;;83.57;24.10;;;24.90;99.90;;;;;;5043671;28;20407;-85
2023/08/16 10:13:51;;;;;;;96.63;26.03;;;25.00;99.90;;;;;;5043416;28;20416;-85
2023/08/16 10:16:21;;;;;;;86.33;28.80;;;25.10;99.90;;;;;;5045640;28;20178;-85
2023/08/16 10:18:47;;;;;;;88.60;29.03;;;25.10;99.90;;;;;;5042861;28;20472;-87
2023/08/16 10:21:18;;;;;;;84.70;28.23;;;25.30;99.90;;;;;;5025590;28;20456;-85
2023/08/16 10:23:44;;;;;;;90.30;32.23;;;25.30;99.90;;;;;;5045703;28;20403;-86
2023/08/16 10:26:21;;;;;;;84.93;34.40;;;25.30;99.90;;;;;;5025282;28;20560;-86
2023/08/16 10:28:51;;;;;;;87.07;34.83;;;25.40;99.90;;;;;;5025262;28;20410;-85
2023/08/16 10:31:22;;;;;;;88.03;38.67;;;25.40;99.90;;;;;;5026296;28;20404;-86
2023/08/16 10:33:50;;;;;;;92.17;42.40;;;25.60;99.90;;;;;;5025225;28;20493;-86
2023/08/16 10:36:16;;;;;;;90.77;40.73;;;25.80;99.90;;;;;;5044787;28;20410;-85
2023/08/16 10:38:42;;;;;;;87.73;37.77;;;26.00;99.90;;;;;;5046868;28;20404;-85
2023/08/16 10:41:12;;;;;;;89.50;33.40;;;26.10;99.90;;;;;;5046463;28;21034;-85
2023/08/16 10:43:38;;;;;;;86.57;26.20;;;25.90;99.90;;;;;;5047061;28;20634;-85
2023/08/16 10:46:04;;;;;;;85.43;27.67;;;25.90;99.90;;;;;;5031236;28;20410;-85
2023/08/16 10:48:36;;;;;;;84.80;28.20;;;25.80;99.90;;;;;;5046438;28;20180;-85
2023/08/16 10:51:07;;;;;;;81.50;27.37;;;25.80;99.90;;;;;;5047826;28;20168;-84
2023/08/16 10:53:37;;;;;;;83.20;28.20;;;25.80;99.90;;;;;;5028875;28;20407;-85
2023/08/16 10:56:08;;;;;;;83.63;31.53;;;25.80;99.90;;;;;;5047722;28;20894;-85
2023/08/16 10:58:47;;;;;;;82.67;30.97;;;25.70;99.90;;;;;;5045346;28;20427;-85
2023/08/16 11:01:13;;;;;;;83.37;31.30;;;25.60;99.90;;;;;;5028970;28;20470;-84
2023/08/16 11:03:41;;;;;;;84.23;29.87;;;25.60;99.90;;;;;;5046581;28;20463;-85
2023/08/16 11:06:08;;;;;;;84.30;33.00;;;25.60;99.90;;;;;;5030224;28;20644;-86
2023/08/16 11:08:44;;;;;;;84.60;31.90;;;25.60;99.90;;;;;;5045536;28;20404;-85
2023/08/16 11:11:12;;;;;;;87.30;34.83;;;25.40;99.90;;;;;;5047355;28;20461;-85
2023/08/16 11:13:41;;;;;;;90.83;38.00;;;25.50;90.60;;;;;;5048212;28;20854;-85
2023/08/16 11:16:12;;;;;;;92.27;38.77;;;25.10;92.10;;;;;;5028262;28;20749;-85
2023/08/16 11:18:41;;;;;;;90.20;37.20;;;24.90;98.20;;;;;;5047010;28;20388;-86
2023/08/16 11:21:13;;;;;;;93.57;39.60;;;24.80;98.80;;;;;;5047204;28;20449;-86
2023/08/16 11:23:39;;;;;;;91.97;34.87;;;24.80;99.90;;;;;;5014361;28;20442;-85
2023/08/16 11:26:07;;;;;;;88.30;31.03;;;24.90;99.90;;;;;;5047377;28;20438;-85
2023/08/16 11:28:34;;;;;;;88.90;34.53;;;25.00;99.90;;;;;;5049001;28;20410;-85
2023/08/16 11:31:01;;;;;;;90.53;37.10;;;25.00;99.90;;;;;;5028702;28;20442;-85
2023/08/16 11:33:39;;;;;;;91.60;36.33;;;25.10;95.50;;;;;;5049079;28;20736;-86
2023/08/16 11:36:07;;;;;;;92.90;37.70;;;25.20;92.50;;;;;;5049361;28;20383;-85
2023/08/16 11:38:34;;;;;;;91.47;35.30;;;25.30;85.00;;;;;;5047752;28;20437;-85
2023/08/16 11:41:03;;;;;;;86.00;30.63;;;25.40;94.60;;;;;;5030642;28;20485;-85
2023/08/16 11:43:32;;;;;;;88.10;35.00;;;25.60;95.60;;;;;;5046689;28;20772;-86
2023/08/16 11:45:59;;;;;;;95.20;40.90;;;25.70;90.20;;;;;;5048829;28;20418;-85
2023/08/16 11:48:25;;;;;;;92.17;36.77;;;25.80;78.00;;;;;;5046772;28;20415;-85
2023/08/16 11:50:51;;;;;;;88.07;31.43;;;26.10;60.50;;;;;;5047690;28;20499;-85
2023/08/16 11:53:19;;;;;;;88.63;28.00;;;26.40;40.00;;;;;;5048702;28;20401;-86
2023/08/16 11:56:11;;;;;;;84.60;23.13;;;26.70;22.90;;;;;;5046192;28;20407;-86
2023/08/16 11:58:47;;;;;;;82.37;20.93;;;26.80;17.00;;;;;;5046392;28;20376;-85
2023/08/16 12:01:27;;;;;;;84.33;18.93;;;26.60;26.20;;;;;;5028290;28;20454;-84
2023/08/16 12:03:53;;;;;;;82.17;18.80;;;26.40;15.10;;;;;;5047606;28;20387;-86
2023/08/16 12:06:21;;;;;;;83.40;17.97;;;26.20;27.90;;;;;;5046499;28;20396;-86
2023/08/16 12:08:49;;;;;;;83.87;19.40;;;26.10;21.40;;;;;;5047150;28;20169;-85
2023/08/16 12:11:25;;;;;;;85.27;22.97;;;25.90;40.00;;;;;;5044638;28;20396;-85
2023/08/16 12:13:53;;;;;;;83.87;20.60;;;26.10;45.30;;;;;;5045673;28;20436;-87
2023/08/16 12:16:25;;;;;;;82.90;18.77;;;26.30;28.90;;;;;;5046094;28;20392;-85
2023/08/16 12:18:51;;;;;;;85.27;16.87;;;26.60;26.60;;;;;;5027263;28;20412;-84
2023/08/16 12:21:17;;;;;;;80.77;14.63;;;27.00;5.10;;;;;;5027142;28;20489;-85